createdAt,value
2022-09-26T00:00:07.407Z,99858.59
2022-09-26T00:03:14.971Z,99860.16
2022-09-26T00:06:19.537Z,99852.72
2022-09-26T00:09:24.263Z,99864.87
2022-09-26T00:12:27.092Z,99850.00
2022-09-26T00:15:29.668Z,99849.59
2022-09-26T00:18:33.069Z,99850.78
2022-09-26T00:21:36.514Z,99843.72
2022-09-26T00:24:39.367Z,99857.88
2022-09-26T00:27:41.891Z,99851.94
2022-09-26T00:30:45.414Z,99868.06
2022-09-26T00:33:48.245Z,99866.88
2022-09-26T00:36:51.121Z,99865.31
2022-09-26T00:39:53.682Z,99866.50
2022-09-26T00:42:57.416Z,99866.13
2022-09-26T00:46:02.987Z,99860.22
2022-09-26T00:49:20.959Z,99850.78
2022-09-26T00:52:49.297Z,99854.72
2022-09-26T00:55:57.623Z,99842.50
2022-09-26T00:59:08.899Z,99849.16
2022-09-26T01:02:12.675Z,99847.56
2022-09-26T01:05:18.846Z,99824.78
2022-09-26T01:08:27.540Z,99837.31
2022-09-26T01:11:31.605Z,99843.13
2022-09-26T01:14:37.508Z,99835.66
2022-09-26T01:17:43.126Z,99836.03
2022-09-26T01:21:05.999Z,99819.50
2022-09-26T01:24:47.287Z,99810.03
2022-09-26T01:28:03.534Z,99817.47
2022-09-26T01:31:37.090Z,99811.97
2022-09-26T01:34:58.154Z,99804.06
2022-09-26T01:38:23.873Z,99793.88
2022-09-26T01:41:48.449Z,99781.69
2022-09-26T01:45:14.586Z,99776.19
2022-09-26T01:48:35.214Z,99784.44
2022-09-26T01:52:09.833Z,99769.47
2022-09-26T01:55:18.515Z,99761.59
2022-09-26T01:58:30.921Z,99745.44
2022-09-26T02:01:39.612Z,99735.63
2022-09-26T02:04:45.719Z,99743.88
2022-09-26T02:08:26.548Z,99740.31
2022-09-26T02:11:30.083Z,99727.00
2022-09-26T02:14:36.494Z,99735.59
2022-09-26T02:17:47.486Z,99737.22
2022-09-26T02:20:57.963Z,99733.31
2022-09-26T02:24:02.056Z,99726.28
2022-09-26T02:27:06.901Z,99738.03
2022-09-26T02:30:10.095Z,99732.16
2022-09-26T02:33:13.493Z,99711.75
2022-09-26T02:36:18.600Z,99719.19
2022-09-26T02:39:21.760Z,99714.16
2022-09-26T02:42:54.114Z,99718.41
2022-09-26T02:46:14.985Z,99719.22
2022-09-26T02:49:52.220Z,99714.50
2022-09-26T02:53:28.725Z,99704.69
2022-09-26T02:57:04.109Z,99711.75
2022-09-26T03:00:17.094Z,99709.84
2022-09-26T03:03:44.821Z,99708.28
2022-09-26T03:06:53.407Z,99690.97
2022-09-26T03:09:57.585Z,99687.44
2022-09-26T03:13:15.985Z,99692.53
2022-09-26T03:16:21.199Z,99685.47
2022-09-26T03:19:32.148Z,99679.59
2022-09-26T03:22:34.981Z,99684.69
2022-09-26T03:25:38.293Z,99676.06
2022-09-26T03:28:42.062Z,99678.81
2022-09-26T03:31:45.263Z,99672.94
2022-09-26T03:34:48.728Z,99659.97
2022-09-26T03:37:52.797Z,99652.91
2022-09-26T03:40:58.800Z,99660.78
2022-09-26T03:44:04.445Z,99656.16
2022-09-26T03:47:08.612Z,99653.06
2022-09-26T03:50:11.914Z,99640.91
2022-09-26T03:53:14.608Z,99637.34
2022-09-26T03:56:19.599Z,99641.28
2022-09-26T03:59:22.344Z,99631.44
2022-09-26T04:02:34.644Z,99642.41
2022-09-26T04:05:38.327Z,99641.56
2022-09-26T04:08:42.659Z,99643.50
2022-09-26T04:11:46.649Z,99648.63
2022-09-26T04:14:49.308Z,99640.41
2022-09-26T04:17:52.269Z,99630.56
2022-09-26T04:20:59.572Z,99628.66
2022-09-26T04:24:02.928Z,99636.06
2022-09-26T04:27:07.323Z,99637.63
2022-09-26T04:30:12.302Z,99630.53
2022-09-26T04:33:15.888Z,99644.66
2022-09-26T04:36:19.273Z,99631.25
2022-09-26T04:39:22.342Z,99634.41
2022-09-26T04:42:25.293Z,99631.66
2022-09-26T04:45:27.936Z,99637.56
2022-09-26T04:48:31.169Z,99636.00
2022-09-26T04:51:35.958Z,99617.50
2022-09-26T04:54:39.145Z,99611.72
2022-09-26T04:57:41.664Z,99620.25
2022-09-26T05:00:48.000Z,99623.41
2022-09-26T05:03:50.984Z,99622.63
2022-09-26T05:06:56.845Z,99621.09
2022-09-26T05:09:59.661Z,99629.28
2022-09-26T05:13:03.720Z,99628.84
2022-09-26T05:16:09.013Z,99628.81
2022-09-26T05:19:12.529Z,99642.56
2022-09-26T05:22:15.495Z,99658.97
2022-09-26T05:25:36.860Z,99670.41
2022-09-26T05:28:39.388Z,99641.50
2022-09-26T05:31:43.526Z,99669.25
2022-09-26T05:34:48.969Z,99676.72
2022-09-26T05:38:02.279Z,99667.31
2022-09-26T05:41:05.788Z,99664.59
2022-09-26T05:44:09.939Z,99675.16
2022-09-26T05:47:13.163Z,99661.81
2022-09-26T05:50:20.460Z,99648.41
2022-09-26T05:53:25.071Z,99641.34
2022-09-26T05:56:28.059Z,99636.59
2022-09-26T05:59:32.232Z,99620.41
2022-09-26T06:02:39.050Z,99613.69
2022-09-26T06:05:43.043Z,99622.31
2022-09-26T06:08:46.633Z,99609.06
2022-09-26T06:11:49.986Z,99628.69
2022-09-26T06:14:53.166Z,99677.47
2022-09-26T06:18:06.438Z,99708.16
2022-09-26T06:21:11.718Z,99686.94
2022-09-26T06:24:14.682Z,99697.16
2022-09-26T06:27:17.689Z,99690.84
2022-09-26T06:30:23.519Z,99703.03
2022-09-26T06:33:31.095Z,99710.47
2022-09-26T06:36:39.299Z,99679.78
2022-09-26T06:39:41.837Z,99694.31
2022-09-26T06:42:47.105Z,99693.47
2022-09-26T06:45:50.073Z,99694.66
2022-09-26T06:48:53.157Z,99700.84
2022-09-26T06:51:56.012Z,99674.94
2022-09-26T06:54:58.990Z,99706.69
2022-09-26T06:58:02.047Z,99687.75
2022-09-26T07:01:06.936Z,99672.41
2022-09-26T07:04:15.760Z,99706.56
2022-09-26T07:07:18.866Z,99728.16
2022-09-26T07:10:21.840Z,99710.16
2022-09-26T07:13:25.723Z,99682.59
2022-09-26T07:16:29.821Z,99675.91
2022-09-26T07:19:32.877Z,99698.63
2022-09-26T07:22:35.682Z,99682.81
2022-09-26T07:25:39.795Z,99679.22
2022-09-26T07:28:43.064Z,99693.72
2022-09-26T07:31:47.278Z,99683.81
2022-09-26T07:34:50.178Z,99678.94
2022-09-26T07:37:53.139Z,99679.50
2022-09-26T07:40:55.796Z,99676.94
2022-09-26T07:47:43.025Z,99680.75
2022-09-26T07:50:48.741Z,99678.41
2022-09-26T07:53:52.594Z,99684.62
2022-09-26T07:56:56.409Z,99681.00
2022-09-26T08:00:00.172Z,99683.13
2022-09-26T08:03:04.875Z,99691.03
2022-09-26T08:06:09.196Z,99690.28
2022-09-26T08:09:13.247Z,99699.91
2022-09-26T08:12:22.292Z,99700.94
2022-09-26T08:15:25.029Z,99701.88
2022-09-26T08:18:30.434Z,99695.91
2022-09-26T08:21:33.785Z,99692.06
2022-09-26T08:24:36.775Z,99707.28
2022-09-26T08:27:43.853Z,99696.19
2022-09-26T08:30:46.894Z,99695.16
2022-09-26T08:33:58.896Z,99686.94
2022-09-26T08:37:01.996Z,99684.25
2022-09-26T08:40:05.562Z,99700.97
2022-09-26T08:43:26.132Z,99711.75
2022-09-26T08:47:02.226Z,99717.44
2022-09-26T08:50:41.412Z,99723.19
2022-09-26T08:53:54.004Z,99713.31
2022-09-26T08:57:01.827Z,99716.88
2022-09-26T09:00:10.062Z,99733.97
2022-09-26T09:03:28.891Z,99752.09
2022-09-26T09:06:32.760Z,99749.63
2022-09-26T09:09:36.293Z,99735.66
2022-09-26T09:12:40.161Z,99716.38
2022-09-26T09:16:01.766Z,99721.59
2022-09-26T09:19:20.182Z,99725.84
2022-09-26T09:22:47.113Z,99748.31
2022-09-26T09:29:56.730Z,99728.47
2022-09-26T09:33:14.812Z,99717.44
2022-09-26T09:36:33.374Z,99717.50
2022-09-26T09:39:42.212Z,99705.13
2022-09-26T09:42:54.312Z,99702.16
2022-09-26T09:46:14.186Z,99717.22
2022-09-26T09:49:25.094Z,99698.94
2022-09-26T09:53:06.327Z,99680.81
2022-09-26T09:56:15.962Z,99695.63
2022-09-26T09:59:40.330Z,99687.22
2022-09-26T10:03:19.015Z,99668.56
2022-09-26T10:06:45.503Z,99659.72
2022-09-26T10:09:46.355Z,99687.78
2022-09-26T10:13:03.048Z,99699.13
2022-09-26T10:16:09.665Z,99698.69
2022-09-26T10:19:14.091Z,99703.00
2022-09-26T10:22:42.409Z,99705.56
2022-09-26T10:25:48.535Z,99699.72
2022-09-26T10:28:55.805Z,99714.09
2022-09-26T10:32:00.529Z,99709.69
2022-09-26T10:35:19.958Z,99720.63
2022-09-26T10:38:27.458Z,99716.78
2022-09-26T10:41:30.463Z,99707.50
2022-09-26T10:44:36.680Z,99707.69
2022-09-26T10:47:46.625Z,99706.69
2022-09-26T10:50:55.686Z,99707.34
2022-09-26T10:54:12.206Z,99700.44
2022-09-26T10:57:23.153Z,99695.00
2022-09-26T11:00:37.828Z,99709.34
2022-09-26T11:03:45.939Z,99714.09
2022-09-26T11:06:51.440Z,99717.88
2022-09-26T11:10:01.996Z,99697.41
2022-09-26T11:13:24.726Z,99702.91
2022-09-26T11:16:28.478Z,99714.78
2022-09-26T11:20:02.711Z,99710.69
2022-09-26T11:23:40.606Z,99703.06
2022-09-26T11:27:12.498Z,99692.16
2022-09-26T11:30:21.083Z,99677.41
2022-09-26T11:33:24.713Z,99679.00
2022-09-26T11:36:54.140Z,99689.91
2022-09-26T11:40:15.110Z,99696.09
2022-09-26T11:43:45.719Z,99683.28
2022-09-26T11:47:01.397Z,99664.22
2022-09-26T11:50:35.642Z,99656.97
2022-09-26T11:54:00.988Z,99662.09
2022-09-26T11:57:22.532Z,99646.09
2022-09-26T12:00:36.178Z,99647.91
2022-09-26T12:04:12.085Z,99659.31
2022-09-26T12:07:17.994Z,99642.97
2022-09-26T12:10:31.278Z,99635.59
2022-09-26T12:13:42.996Z,99633.75
2022-09-26T12:16:55.173Z,99625.88
2022-09-26T12:20:19.608Z,99631.22
2022-09-26T12:23:34.279Z,99613.47
2022-09-26T12:26:49.779Z,99633.38
2022-09-26T12:30:14.407Z,99622.06
2022-09-26T12:33:38.375Z,99622.28
2022-09-26T12:37:04.776Z,99622.38
2022-09-26T12:40:19.508Z,99614.13
2022-09-26T12:43:31.548Z,99590.19
2022-09-26T12:46:59.191Z,99569.09
2022-09-26T12:50:51.338Z,99584.97
2022-09-26T12:54:19.066Z,99616.16
2022-09-26T12:57:55.277Z,99615.16
2022-09-26T13:01:28.687Z,99615.94
2022-09-26T13:05:19.392Z,99605.16
2022-09-26T13:08:36.842Z,99595.28
2022-09-26T13:12:25.950Z,99588.19
2022-09-26T13:15:36.107Z,99603.09
2022-09-26T13:18:52.297Z,99609.34
2022-09-26T13:22:05.847Z,99608.38
2022-09-26T13:25:15.411Z,99605.16
2022-09-26T13:28:26.708Z,99597.28
2022-09-26T13:31:55.978Z,99591.41
2022-09-26T13:35:07.171Z,99606.59
2022-09-26T13:38:41.424Z,99616.62
2022-09-26T13:41:56.652Z,99617.03
2022-09-26T13:45:04.179Z,99613.16
2022-09-26T13:48:13.812Z,99593.84
2022-09-26T13:51:40.102Z,99588.28
2022-09-26T13:54:56.319Z,99600.38
2022-09-26T13:58:07.120Z,99607.38
2022-09-26T14:01:27.326Z,99602.56
2022-09-26T14:04:36.680Z,99592.03
2022-09-26T14:07:57.729Z,99577.50
2022-09-26T14:11:12.087Z,99575.06
2022-09-26T14:14:21.482Z,99568.09
2022-09-26T14:17:44.532Z,99580.22
2022-09-26T14:21:05.968Z,99562.69
2022-09-26T14:24:21.027Z,99557.97
2022-09-26T14:27:37.624Z,99569.38
2022-09-26T14:31:14.017Z,99575.63
2022-09-26T14:34:38.377Z,99563.00
2022-09-26T14:37:45.188Z,99569.03
2022-09-26T14:40:58.032Z,99568.09
2022-09-26T14:44:16.419Z,99563.47
2022-09-26T14:47:20.151Z,99564.22
2022-09-26T14:50:49.528Z,99564.00
2022-09-26T14:53:57.360Z,99550.34
2022-09-26T14:57:06.231Z,99551.56
2022-09-26T15:00:33.934Z,99545.09
2022-09-26T15:03:37.983Z,99542.97
2022-09-26T15:06:46.503Z,99525.09
2022-09-26T15:09:57.413Z,99527.41
2022-09-26T15:13:12.132Z,99531.97
2022-09-26T15:16:45.896Z,99525.81
2022-09-26T15:19:53.057Z,99516.50
2022-09-26T15:22:57.469Z,99516.00
2022-09-26T15:26:03.365Z,99544.13
2022-09-26T15:29:08.029Z,99543.81
2022-09-26T15:32:16.683Z,99551.25
2022-09-26T15:35:19.805Z,99560.41
2022-09-26T15:38:23.965Z,99559.72
2022-09-26T15:41:45.525Z,99544.50
2022-09-26T15:45:00.314Z,99557.81
2022-09-26T15:48:06.016Z,99550.06
2022-09-26T15:51:20.551Z,99551.06
2022-09-26T15:54:29.618Z,99547.62
2022-09-26T15:57:33.613Z,99535.56
2022-09-26T16:00:41.845Z,99546.88
2022-09-26T16:04:01.231Z,99560.53
2022-09-26T16:07:07.046Z,99552.69
2022-09-26T16:10:30.518Z,99558.66
2022-09-26T16:13:38.973Z,99559.53
2022-09-26T16:16:42.388Z,99567.88
2022-09-26T16:19:57.573Z,99565.63
2022-09-26T16:23:05.169Z,99572.00
2022-09-26T16:26:24.871Z,99565.00
2022-09-26T16:29:34.768Z,99564.38
2022-09-26T16:32:37.489Z,99565.34
2022-09-26T16:35:48.368Z,99560.94
2022-09-26T16:39:02.731Z,99561.69
2022-09-26T16:42:16.361Z,99560.53
2022-09-26T16:45:19.168Z,99558.28
2022-09-26T16:48:50.207Z,99551.97
2022-09-26T16:52:28.245Z,99541.34
2022-09-26T16:55:34.394Z,99532.34
2022-09-26T16:58:37.112Z,99495.88
2022-09-26T17:01:55.187Z,99506.88
2022-09-26T17:04:57.890Z,99499.44
2022-09-26T17:08:00.914Z,99486.03
2022-09-26T17:11:04.743Z,99478.97
2022-09-26T17:14:13.670Z,99481.34
2022-09-26T17:17:21.962Z,99488.66
2022-09-26T17:20:25.156Z,99486.12
2022-09-26T17:23:44.556Z,99487.44
2022-09-26T17:26:53.389Z,99485.25
2022-09-26T17:30:00.861Z,99482.91
2022-09-26T17:33:04.471Z,99464.03
2022-09-26T17:36:11.015Z,99478.22
2022-09-26T17:39:18.353Z,99480.31
2022-09-26T17:42:22.214Z,99491.06
2022-09-26T17:45:32.196Z,99497.72
2022-09-26T17:48:35.729Z,99499.34
2022-09-26T17:51:38.729Z,99499.78
2022-09-26T17:54:42.709Z,99495.44
2022-09-26T17:57:45.865Z,99498.25
2022-09-26T18:00:50.432Z,99480.06
2022-09-26T18:04:02.709Z,99484.75
2022-09-26T18:07:05.539Z,99478.44
2022-09-26T18:10:21.023Z,99478.75
2022-09-26T18:13:30.516Z,99471.19
2022-09-26T18:16:33.531Z,99470.34
2022-09-26T18:19:38.364Z,99458.50
2022-09-26T18:22:41.272Z,99454.50
2022-09-26T18:25:48.205Z,99454.09
2022-09-26T18:28:51.856Z,99453.75
2022-09-26T18:31:55.004Z,99451.44
2022-09-26T18:34:59.933Z,99464.88
2022-09-26T18:38:02.622Z,99475.22
2022-09-26T18:41:07.164Z,99479.97
2022-09-26T18:44:16.741Z,99478.41
2022-09-26T18:47:19.736Z,99490.13
2022-09-26T18:50:31.061Z,99496.19
2022-09-26T18:53:37.471Z,99500.13
2022-09-26T18:56:59.817Z,99503.69
2022-09-26T19:00:05.155Z,99510.03
2022-09-26T19:03:08.467Z,99485.78
2022-09-26T19:06:19.790Z,99502.94
2022-09-26T19:09:22.806Z,99500.63
2022-09-26T19:12:25.792Z,99494.25
2022-09-26T19:15:28.967Z,99496.97
2022-09-26T19:18:32.098Z,99492.28
2022-09-26T19:21:44.556Z,99481.31
2022-09-26T19:24:54.124Z,99487.59
2022-09-26T19:27:57.239Z,99478.59
2022-09-26T19:31:03.743Z,99468.19
2022-09-26T19:34:06.700Z,99486.53
2022-09-26T19:37:13.081Z,99501.97
2022-09-26T19:40:17.824Z,99490.66
2022-09-26T19:43:21.860Z,99490.28
2022-09-26T19:46:27.613Z,99492.75
2022-09-26T19:49:32.697Z,99490.13
2022-09-26T19:52:35.745Z,99485.88
2022-09-26T19:55:39.470Z,99489.87
2022-09-26T19:58:42.974Z,99486.38
2022-09-26T20:01:46.639Z,99485.28
2022-09-26T20:04:51.262Z,99484.22
2022-09-26T20:07:54.066Z,99497.28
2022-09-26T20:10:57.986Z,99493.88
2022-09-26T20:14:19.465Z,99493.16
2022-09-26T20:17:26.929Z,99491.66
2022-09-26T20:20:31.647Z,99490.72
2022-09-26T20:23:35.456Z,99482.50
2022-09-26T20:26:38.194Z,99464.09
2022-09-26T20:30:01.321Z,99487.34
2022-09-26T20:33:04.922Z,99486.69
2022-09-26T20:36:11.650Z,99487.94
2022-09-26T20:39:19.545Z,99486.34
2022-09-26T20:42:27.993Z,99480.50
2022-09-26T20:45:39.530Z,99483.97
2022-09-26T20:48:47.141Z,99483.19
2022-09-26T20:51:51.401Z,99480.88
2022-09-26T20:54:55.530Z,99471.97
2022-09-26T20:57:59.666Z,99477.69
2022-09-26T21:01:02.639Z,99468.31
2022-09-26T21:04:05.637Z,99458.56
2022-09-26T21:07:13.506Z,99465.59
2022-09-26T21:10:30.548Z,99475.44
2022-09-26T21:13:33.481Z,99473.50
2022-09-26T21:16:42.287Z,99472.00
2022-09-26T21:19:45.699Z,99473.66
2022-09-26T21:22:50.548Z,99475.34
2022-09-26T21:25:53.512Z,99475.44
2022-09-26T21:28:56.235Z,99462.94
2022-09-26T21:32:04.407Z,99459.03
2022-09-26T21:35:07.559Z,99464.53
2022-09-26T21:38:10.713Z,99457.56
2022-09-26T21:41:13.533Z,99446.66
2022-09-26T21:44:32.308Z,99448.25
2022-09-26T21:47:36.617Z,99450.66
2022-09-26T21:50:44.447Z,99439.28
2022-09-26T21:53:59.262Z,99437.72
2022-09-26T21:57:08.241Z,99439.19
2022-09-26T22:00:12.375Z,99424.22
2022-09-26T22:03:16.211Z,99436.03
2022-09-26T22:06:19.439Z,99429.47
2022-09-26T22:09:22.676Z,99422.09
2022-09-26T22:12:28.428Z,99417.88
2022-09-26T22:15:31.076Z,99420.25
2022-09-26T22:18:35.797Z,99421.84
2022-09-26T22:21:38.536Z,99414.03
2022-09-26T22:24:41.427Z,99410.56
2022-09-26T22:27:44.020Z,99404.72
2022-09-26T22:30:47.072Z,99401.59
2022-09-26T22:33:49.745Z,99397.22
2022-09-26T22:36:53.184Z,99396.78
2022-09-26T22:39:55.864Z,99392.09
2022-09-26T22:42:58.781Z,99390.53
2022-09-26T22:46:03.245Z,99372.19
2022-09-26T22:49:06.312Z,99379.22
2022-09-26T22:52:09.036Z,99385.50
2022-09-26T22:55:12.077Z,99382.75
2022-09-26T22:58:14.723Z,99376.94
2022-09-26T23:01:27.237Z,99380.12
2022-09-26T23:04:47.011Z,99373.50
2022-09-26T23:07:54.053Z,99366.50
2022-09-26T23:10:56.753Z,99362.22
2022-09-26T23:13:59.802Z,99377.56
2022-09-26T23:17:03.132Z,99373.19
2022-09-26T23:20:07.158Z,99365.38
2022-09-26T23:23:11.632Z,99362.66
2022-09-26T23:26:23.115Z,99349.41
2022-09-26T23:29:26.414Z,99358.38
2022-09-26T23:32:29.380Z,99361.44
2022-09-26T23:35:31.961Z,99350.41
2022-09-26T23:38:36.575Z,99355.44
2022-09-26T23:41:39.265Z,99340.94
2022-09-26T23:44:42.285Z,99344.06
2022-09-26T23:47:44.933Z,99346.37
2022-09-26T23:50:47.891Z,99338.94
2022-09-26T23:53:50.496Z,99328.81
2022-09-26T23:56:53.507Z,99326.44
2022-09-26T23:59:56.119Z,99331.13
